createdAt,value
2019-01-10T00:00:11.115Z,2.77
2019-01-10T00:02:39.555Z,2.63
2019-01-10T00:05:09.175Z,2.90
2019-01-10T00:07:37.671Z,2.67
2019-01-10T00:10:06.595Z,2.73
2019-01-10T00:12:39.552Z,2.63
2019-01-10T00:15:07.204Z,2.70
2019-01-10T00:17:35.610Z,2.60
2019-01-10T00:20:05.002Z,2.27
2019-01-10T00:22:33.494Z,2.30
2019-01-10T00:25:01.952Z,2.60
2019-01-10T00:27:30.464Z,2.50
2019-01-10T00:29:58.932Z,2.50
2019-01-10T00:32:27.367Z,2.37
2019-01-10T00:34:56.215Z,2.27
2019-01-10T00:37:24.725Z,2.53
2019-01-10T00:39:53.600Z,2.27
2019-01-10T00:42:22.148Z,2.80
2019-01-10T00:44:50.623Z,2.53
2019-01-10T00:47:19.096Z,2.47
2019-01-10T00:49:47.576Z,2.53
2019-01-10T00:52:16.000Z,2.30
2019-01-10T00:54:44.393Z,2.47
2019-01-10T00:57:13.615Z,2.83
2019-01-10T00:59:42.156Z,2.70
2019-01-10T01:02:10.652Z,2.23
2019-01-10T01:04:39.148Z,3.00
2019-01-10T01:07:07.647Z,2.17
2019-01-10T01:09:36.068Z,2.03
2019-01-10T01:12:04.640Z,2.33
2019-01-10T01:14:33.317Z,2.40
2019-01-10T01:17:01.806Z,2.87
2019-01-10T01:19:30.320Z,3.43
2019-01-10T01:21:58.800Z,2.73
2019-01-10T01:24:27.304Z,2.80
2019-01-10T01:26:55.692Z,2.17
2019-01-10T01:29:24.281Z,2.40
2019-01-10T01:31:52.764Z,2.80
2019-01-10T01:34:21.237Z,2.50
2019-01-10T01:36:49.668Z,2.80
2019-01-10T01:39:18.465Z,2.93
2019-01-10T01:41:46.941Z,2.70
2019-01-10T01:44:15.813Z,2.80
2019-01-10T01:46:44.301Z,2.40
2019-01-10T01:49:13.593Z,2.40
2019-01-10T01:51:42.163Z,2.43
2019-01-10T01:54:10.665Z,2.37
2019-01-10T01:56:39.077Z,2.80
2019-01-10T01:59:07.553Z,2.40
2019-01-10T02:01:36.025Z,2.43
2019-01-10T02:04:04.507Z,2.57
2019-01-10T02:06:32.977Z,2.77
2019-01-10T02:09:01.473Z,2.80
2019-01-10T02:11:30.017Z,2.50
2019-01-10T02:13:58.453Z,2.90
2019-01-10T02:16:27.021Z,2.20
2019-01-10T02:18:55.601Z,2.83
2019-01-10T02:21:24.106Z,2.23
2019-01-10T02:23:52.825Z,2.70
2019-01-10T02:26:21.385Z,2.57
2019-01-10T02:29:08.974Z,3.00
2019-01-10T02:31:56.592Z,2.43
2019-01-10T02:34:44.189Z,2.40
2019-01-10T03:18:55.076Z,2.97
2019-01-10T03:21:42.679Z,2.10
2019-01-10T03:24:30.286Z,2.63
2019-01-10T03:27:17.890Z,2.73
2019-01-10T03:30:05.523Z,2.53
2019-01-10T03:32:53.435Z,2.50
2019-01-10T03:35:41.368Z,2.67
2019-01-10T04:58:58.044Z,3.40
2019-01-10T07:43:03.178Z,4.43
2019-01-10T07:45:50.790Z,4.30
2019-01-10T07:48:38.470Z,4.40
2019-01-10T07:54:24.222Z,4.83
2019-01-10T07:57:11.859Z,4.37
2019-01-10T07:59:59.518Z,4.50
2019-01-10T08:02:47.126Z,4.30
2019-01-10T08:05:34.747Z,4.23
2019-01-10T08:08:22.358Z,3.87
2019-01-10T08:11:09.970Z,4.33
2019-01-10T08:13:57.651Z,4.67
2019-01-10T08:16:45.291Z,4.20
2019-01-10T08:19:35.707Z,3.87
2019-01-10T08:22:28.076Z,4.27
2019-01-10T08:25:12.782Z,4.53
2019-01-10T08:28:00.712Z,4.37
2019-01-10T08:30:29.286Z,4.70
2019-01-10T08:32:57.788Z,4.17
2019-01-10T08:35:29.323Z,4.37
2019-01-10T08:37:58.011Z,4.60
2019-01-10T08:40:26.623Z,4.83
2019-01-10T08:42:55.158Z,4.37
2019-01-10T08:45:23.837Z,4.50
2019-01-10T08:47:52.343Z,4.80
2019-01-10T08:50:22.004Z,5.57
2019-01-10T08:52:50.631Z,4.70
2019-01-10T08:55:19.119Z,4.30
2019-01-10T08:57:47.619Z,4.73
2019-01-10T09:00:17.651Z,5.30
2019-01-10T09:02:46.147Z,7.00
2019-01-10T09:05:14.716Z,5.40
2019-01-10T09:07:43.207Z,4.30
2019-01-10T09:10:17.230Z,4.97
2019-01-10T09:12:45.755Z,5.00
2019-01-10T09:15:23.061Z,4.10
2019-01-10T09:17:44.531Z,4.17
2019-01-10T09:20:13.275Z,4.37
2019-01-10T09:22:41.839Z,5.37
2019-01-10T09:25:10.319Z,9.57
2019-01-10T09:27:38.815Z,5.63
2019-01-10T09:30:09.827Z,4.80
2019-01-10T09:32:38.479Z,4.50
2019-01-10T09:35:07.427Z,4.40
2019-01-10T09:37:35.888Z,4.90
2019-01-10T09:40:04.868Z,5.17
2019-01-10T09:42:33.376Z,4.53
2019-01-10T09:45:01.796Z,4.53
2019-01-10T09:47:30.292Z,4.40
2019-01-10T09:49:58.766Z,4.60
2019-01-10T09:52:27.318Z,4.50
2019-01-10T09:54:55.809Z,4.60
2019-01-10T09:57:24.408Z,4.67
2019-01-10T09:59:53.198Z,4.30
2019-01-10T10:02:21.748Z,4.87
2019-01-10T10:04:50.194Z,5.40
2019-01-10T10:07:18.700Z,4.80
2019-01-10T10:09:47.192Z,4.80
2019-01-10T10:12:15.688Z,4.93
2019-01-10T10:14:44.200Z,5.50
2019-01-10T10:17:12.677Z,5.50
2019-01-10T10:19:41.100Z,5.83
2019-01-10T10:22:09.621Z,5.27
2019-01-10T10:24:38.035Z,5.03
2019-01-10T10:27:06.517Z,5.80
2019-01-10T10:29:35.025Z,5.70
2019-01-10T10:32:03.585Z,6.10
2019-01-10T10:34:32.168Z,5.70
2019-01-10T10:37:00.814Z,4.40
2019-01-10T10:39:29.262Z,4.10
2019-01-10T10:41:57.764Z,4.23
2019-01-10T10:44:26.265Z,4.60
2019-01-10T10:46:54.830Z,5.13
2019-01-10T10:49:23.255Z,4.50
2019-01-10T10:51:51.734Z,5.20
2019-01-10T10:54:20.285Z,4.97
2019-01-10T10:56:48.785Z,4.77
2019-01-10T10:59:17.566Z,5.17
2019-01-10T11:01:46.197Z,4.77
2019-01-10T11:04:14.845Z,5.83
2019-01-10T11:06:43.361Z,4.97
2019-01-10T11:09:11.926Z,4.73
2019-01-10T11:11:40.425Z,4.73
2019-01-10T11:14:08.850Z,6.90
2019-01-10T11:16:37.618Z,4.70
2019-01-10T11:19:06.098Z,4.90
2019-01-10T11:21:34.590Z,5.07
2019-01-10T11:24:03.102Z,4.63
2019-01-10T11:26:31.763Z,4.73
2019-01-10T11:29:00.246Z,4.53
2019-01-10T11:31:28.750Z,4.47
2019-01-10T11:33:57.150Z,4.80
2019-01-10T11:36:25.646Z,4.93
2019-01-10T11:38:54.099Z,4.77
2019-01-10T11:41:22.666Z,4.57
2019-01-10T11:43:51.162Z,4.50
2019-01-10T11:46:20.115Z,5.10
2019-01-10T11:48:48.724Z,4.70
2019-01-10T11:51:17.955Z,4.23
2019-01-10T11:53:46.430Z,5.00
2019-01-10T11:56:15.010Z,4.70
2019-01-10T11:58:43.541Z,5.13
2019-01-10T12:01:13.313Z,4.53
2019-01-10T12:03:41.857Z,4.67
2019-01-10T12:06:10.407Z,4.93
2019-01-10T12:08:38.885Z,4.60
2019-01-10T12:11:07.390Z,4.40
2019-01-10T12:13:35.938Z,5.30
2019-01-10T12:16:04.607Z,4.43
2019-01-10T12:18:33.190Z,4.90
2019-01-10T12:21:01.742Z,4.43
2019-01-10T12:23:30.379Z,4.53
2019-01-10T12:25:58.907Z,4.13
2019-01-10T12:28:27.583Z,4.80
2019-01-10T12:30:56.091Z,3.57
2019-01-10T12:33:24.588Z,3.93
2019-01-10T12:35:52.991Z,3.20
2019-01-10T12:38:21.495Z,3.77
2019-01-10T12:40:50.291Z,3.30
2019-01-10T12:43:18.973Z,3.43
2019-01-10T12:45:47.543Z,2.90
2019-01-10T12:48:16.115Z,4.00
2019-01-10T12:50:44.539Z,4.10
2019-01-10T12:53:13.015Z,3.10
2019-01-10T12:55:41.511Z,3.17
2019-01-10T12:58:10.059Z,3.93
2019-01-10T13:00:38.563Z,3.70
2019-01-10T13:03:07.072Z,3.70
2019-01-10T13:05:35.623Z,3.50
2019-01-10T13:08:04.223Z,3.67
2019-01-10T13:10:32.723Z,3.40
2019-01-10T13:13:01.147Z,3.10
2019-01-10T13:15:29.627Z,3.07
2019-01-10T13:17:58.135Z,3.10
2019-01-10T13:20:26.725Z,3.23
2019-01-10T13:22:55.292Z,2.90
2019-01-10T13:25:23.876Z,3.17
2019-01-10T13:27:52.788Z,3.63
2019-01-10T13:30:22.280Z,3.70
2019-01-10T13:32:51.560Z,3.67
2019-01-10T13:35:20.067Z,5.20
2019-01-10T13:37:48.566Z,3.80
2019-01-10T13:40:17.063Z,4.23
2019-01-10T13:42:45.536Z,4.37
2019-01-10T13:45:14.308Z,5.67
2019-01-10T13:47:44.328Z,4.53
2019-01-10T13:50:16.656Z,5.13
2019-01-10T13:52:45.245Z,4.57
2019-01-10T13:55:14.512Z,5.03
2019-01-10T13:57:43.001Z,4.30
2019-01-10T14:00:13.653Z,5.13
2019-01-10T14:02:42.412Z,5.30
2019-01-10T14:05:11.008Z,5.63
2019-01-10T14:07:39.617Z,5.13
2019-01-10T14:10:08.600Z,3.83
2019-01-10T14:12:37.164Z,3.70
2019-01-10T14:15:06.496Z,3.40
2019-01-10T14:20:03.533Z,3.90
2019-01-10T14:22:32.044Z,4.07
2019-01-10T14:25:00.564Z,4.30
2019-01-10T14:27:29.149Z,4.50
2019-01-10T14:29:57.646Z,4.40
2019-01-10T14:32:45.352Z,4.13
2019-01-10T15:20:19.865Z,5.30
2019-01-10T15:22:48.385Z,5.20
2019-01-10T15:25:36.061Z,5.30
2019-01-10T15:28:04.849Z,5.57
2019-01-10T15:30:52.489Z,5.83
2019-01-10T15:33:20.898Z,5.47
2019-01-10T15:36:08.513Z,6.03
2019-01-10T15:38:56.241Z,7.20
2019-01-10T15:41:43.866Z,7.67
2019-01-10T15:44:31.554Z,6.73
2019-01-10T15:47:19.853Z,7.10
2019-01-10T15:50:08.493Z,6.03
2019-01-10T16:52:26.091Z,8.33
2019-01-10T16:55:13.816Z,8.43
2019-01-10T16:58:01.507Z,8.03
2019-01-10T17:00:49.251Z,8.97
2019-01-10T17:03:36.963Z,9.40
2019-01-10T17:06:24.839Z,10.03
2019-01-10T17:09:17.552Z,10.27
2019-01-10T17:12:01.813Z,10.00
2019-01-10T17:14:49.453Z,9.67
2019-01-10T17:17:37.807Z,7.13
2019-01-10T17:23:19.616Z,7.90
2019-01-10T17:26:07.248Z,8.13
2019-01-10T17:28:54.897Z,7.03
2019-01-10T17:31:42.524Z,7.47
2019-01-10T18:31:05.154Z,6.10
2019-01-10T18:33:53.040Z,6.20
2019-01-10T18:36:40.685Z,6.67
2019-01-10T18:39:28.293Z,14.83
2019-01-10T18:42:15.937Z,6.83
2019-01-10T18:45:03.533Z,5.17
2019-01-10T18:47:56.926Z,5.13
2019-01-10T18:50:40.518Z,5.00
2019-01-10T19:56:07.180Z,5.87
2019-01-10T19:58:54.864Z,7.60
2019-01-10T20:01:42.512Z,4.63
2019-01-10T20:04:30.136Z,5.03
2019-01-10T20:07:17.745Z,5.97
2019-01-10T20:10:05.433Z,9.20
2019-01-10T20:12:53.328Z,4.57
2019-01-10T20:15:40.969Z,5.10
2019-01-10T20:18:28.613Z,4.43
2019-01-10T20:21:16.249Z,3.90
2019-01-10T20:24:03.869Z,4.30
2019-01-10T20:26:52.230Z,4.17
2019-01-10T20:32:48.737Z,4.87
2019-01-10T20:35:36.353Z,4.60
2019-01-10T20:38:24.129Z,4.83
2019-01-10T21:08:02.661Z,6.37
2019-01-10T21:10:50.363Z,5.93
2019-01-10T21:13:37.993Z,5.80
2019-01-10T21:16:25.609Z,6.60
2019-01-10T21:19:13.346Z,6.40
2019-01-10T21:22:00.957Z,6.37
2019-01-10T21:24:48.574Z,6.10
2019-01-10T21:27:36.243Z,5.90
2019-01-10T21:30:23.894Z,6.13
2019-01-10T21:33:11.530Z,5.70
2019-01-10T21:35:59.218Z,6.70
2019-01-10T21:38:47.322Z,5.80
2019-01-10T21:41:34.934Z,6.07
2019-01-10T21:44:03.542Z,5.60
2019-01-10T21:46:32.042Z,5.53
2019-01-10T21:49:00.921Z,6.20
2019-01-10T21:51:29.402Z,6.60
2019-01-10T21:53:57.914Z,5.80
2019-01-10T21:56:26.410Z,6.20
2019-01-10T21:59:14.122Z,6.43
2019-01-10T22:02:01.746Z,6.07
2019-01-10T22:04:49.622Z,6.33
2019-01-10T22:07:37.228Z,5.10
2019-01-10T22:10:24.850Z,5.43
2019-01-10T22:12:53.343Z,5.20
2019-01-10T22:15:40.968Z,5.13
2019-01-10T22:18:28.575Z,5.53
2019-01-10T22:21:16.195Z,5.73
2019-01-10T22:24:03.835Z,5.40
2019-01-10T22:26:32.392Z,4.97
2019-01-10T22:29:19.994Z,4.90
2019-01-10T22:32:07.642Z,4.50
2019-01-10T22:34:55.239Z,4.50
2019-01-10T22:37:42.894Z,4.40
2019-01-10T22:40:13.153Z,4.33
2019-01-10T22:43:00.891Z,4.50
2019-01-10T22:48:55.303Z,3.90
2019-01-10T22:51:42.919Z,3.97
2019-01-10T22:54:30.539Z,3.90
2019-01-10T23:06:09.227Z,3.00
2019-01-10T23:08:47.205Z,3.23
2019-01-10T23:11:16.612Z,3.03
2019-01-10T23:13:48.559Z,3.23
2019-01-10T23:16:36.180Z,3.37
2019-01-10T23:19:05.375Z,3.60
2019-01-10T23:21:34.925Z,4.22
2019-01-10T23:24:26.720Z,4.97
2019-01-10T23:26:55.589Z,5.00
2019-01-10T23:29:43.223Z,5.67
2019-01-10T23:32:14.969Z,6.00
2019-01-10T23:35:02.736Z,6.50
2019-01-10T23:37:50.408Z,6.93
2019-01-10T23:40:38.031Z,6.70
2019-01-10T23:46:32.436Z,6.70
2019-01-10T23:49:00.933Z,6.17
2019-01-10T23:51:48.569Z,6.37
2019-01-10T23:54:36.168Z,6.00
